Time;durP1;ratioP1;P1;durP2;ratioP2;P2;SDS_P1;SDS_P2;PMS_P1;PMS_P2;Temp;Humidity;BMP_temperature;BMP_pressure;BME280_temperature;BME280_humidity;BME280_pressure;Samples;Min_cycle;Max_cycle;Signal;HPM_P1;HPM_P2
2023/07/01 05:03:16;;;;;;;4.50;2.47;;;16.90;99.90;;;;;;5159848;23;20045;-74
2023/07/01 05:05:42;;;;;;;4.65;2.47;;;17.00;99.90;;;;;;5017940;28;20038;-73
2023/07/01 05:08:07;;;;;;;4.85;2.25;;;17.10;99.90;;;;;;5023087;28;20048;-74
2023/07/01 05:10:33;;;;;;;3.47;2.00;;;17.10;99.90;;;;;;5023390;28;20021;-74
2023/07/01 05:12:59;;;;;;;3.38;2.38;;;17.10;99.90;;;;;;5022858;28;20038;-74
2023/07/01 05:15:24;;;;;;;3.15;1.90;;;17.10;99.90;;;;;;5023543;28;20041;-73
2023/07/01 05:17:50;;;;;;;4.15;2.22;;;17.20;99.90;;;;;;5023523;28;20037;-74
2023/07/01 05:20:16;;;;;;;6.13;2.30;;;17.20;99.90;;;;;;5022865;28;20089;-74
2023/07/01 05:22:42;;;;;;;3.60;2.28;;;17.30;99.90;;;;;;5005988;28;20105;-74
2023/07/01 05:25:08;;;;;;;6.57;2.35;;;17.30;99.90;;;;;;5003074;28;20031;-73
2023/07/01 05:27:33;;;;;;;3.70;2.20;;;17.40;99.90;;;;;;5003464;28;20285;-74
2023/07/01 05:29:59;;;;;;;4.70;2.40;;;17.40;99.90;;;;;;5003091;28;20046;-74
2023/07/01 05:32:25;;;;;;;3.70;2.08;;;17.50;99.90;;;;;;5003421;28;20072;-74
2023/07/01 05:34:51;;;;;;;4.30;2.13;;;17.50;99.90;;;;;;5003267;28;20347;-74
2023/07/01 05:37:17;;;;;;;5.07;2.33;;;17.60;99.90;;;;;;5022152;28;20026;-74
2023/07/01 05:39:42;;;;;;;5.07;2.45;;;17.70;99.90;;;;;;5005504;28;20369;-74
2023/07/01 05:42:08;;;;;;;5.13;2.08;;;17.80;99.90;;;;;;5005052;28;20064;-75
2023/07/01 05:44:34;;;;;;;3.88;2.25;;;17.80;99.90;;;;;;5023266;28;20090;-75
2023/07/01 05:46:59;;;;;;;3.70;2.10;;;17.90;99.90;;;;;;5022823;28;20026;-75
2023/07/01 05:49:25;;;;;;;4.85;2.13;;;18.00;99.90;;;;;;5005741;28;20048;-75
2023/07/01 05:51:51;;;;;;;5.47;2.08;;;18.10;99.90;;;;;;5022952;28;20087;-75
2023/07/01 05:54:17;;;;;;;4.82;2.03;;;18.20;99.80;;;;;;5022648;28;20040;-75
2023/07/01 05:56:43;;;;;;;4.38;2.10;;;18.30;99.70;;;;;;5022704;28;20034;-75
2023/07/01 05:59:09;;;;;;;5.13;2.10;;;18.30;99.20;;;;;;5005585;28;20074;-75
2023/07/01 06:01:35;;;;;;;4.32;1.60;;;18.40;98.40;;;;;;5011155;28;20037;-75
2023/07/01 06:04:01;;;;;;;5.22;2.00;;;18.50;97.90;;;;;;5046282;28;20046;-75
2023/07/01 06:06:26;;;;;;;3.50;1.50;;;18.50;97.40;;;;;;5046704;28;20089;-75
2023/07/01 06:08:52;;;;;;;3.90;1.75;;;18.60;97.20;;;;;;5046176;28;20311;-75
2023/07/01 06:11:18;;;;;;;3.35;1.83;;;18.70;96.70;;;;;;5045842;28;20048;-75
2023/07/01 06:13:47;;;;;;;6.20;1.85;;;18.70;96.40;;;;;;5046393;28;20044;-75
2023/07/01 06:16:14;;;;;;;5.15;1.60;;;18.80;96.00;;;;;;5046279;28;20029;-75
2023/07/01 06:18:41;;;;;;;4.45;1.55;;;18.90;95.70;;;;;;5046399;28;20029;-75
2023/07/01 06:21:07;;;;;;;5.75;1.90;;;19.00;95.40;;;;;;5046080;28;20025;-75
2023/07/01 06:23:36;;;;;;;6.03;1.90;;;19.20;95.20;;;;;;5046392;28;20319;-74
2023/07/01 06:26:03;;;;;;;4.78;1.60;;;19.30;94.40;;;;;;5046068;28;20033;-74
2023/07/01 06:28:29;;;;;;;5.65;1.60;;;19.30;94.10;;;;;;5028417;28;20040;-74
2023/07/01 06:30:55;;;;;;;9.57;3.05;;;19.40;93.30;;;;;;5044840;28;20315;-74
2023/07/01 06:33:20;;;;;;;3.25;1.30;;;19.60;92.70;;;;;;5045867;28;20048;-74
2023/07/01 06:35:46;;;;;;;2.45;1.25;;;19.60;92.60;;;;;;5042042;28;20044;-74
2023/07/01 06:38:12;;;;;;;4.10;1.50;;;19.70;92.20;;;;;;5025794;28;20311;-74
2023/07/01 06:40:38;;;;;;;3.05;1.30;;;19.70;92.10;;;;;;5026447;28;20315;-74
2023/07/01 06:43:04;;;;;;;5.15;1.80;;;19.80;91.50;;;;;;5025466;28;20045;-75
2023/07/01 06:45:30;;;;;;;7.38;1.48;;;20.00;91.30;;;;;;5025966;28;20029;-74
2023/07/01 06:47:56;;;;;;;2.20;1.13;;;20.00;89.40;;;;;;5026632;28;20371;-75
2023/07/01 06:50:22;;;;;;;3.70;1.40;;;20.00;88.90;;;;;;5025857;28;20037;-74
2023/07/01 06:52:48;;;;;;;3.80;1.30;;;20.00;88.50;;;;;;5026219;28;20018;-74
2023/07/01 06:55:14;;;;;;;3.38;1.50;;;20.20;87.90;;;;;;5025617;28;20032;-74
2023/07/01 06:57:41;;;;;;;2.78;1.20;;;20.30;88.00;;;;;;5025591;28;20017;-74
2023/07/01 07:00:11;;;;;;;5.35;1.75;;;20.30;85.00;;;;;;5007743;28;20203;-74
2023/07/01 07:02:37;;;;;;;2.88;1.13;;;20.40;83.70;;;;;;5031159;28;20313;-73
2023/07/01 07:05:04;;;;;;;5.35;1.27;;;20.40;83.60;;;;;;5044666;28;20075;-73
2023/07/01 07:07:30;;;;;;;6.32;1.20;;;20.50;83.50;;;;;;5045440;28;20037;-74
2023/07/01 07:09:56;;;;;;;2.80;1.10;;;20.60;82.50;;;;;;5045276;28;20387;-74
2023/07/01 07:12:21;;;;;;;4.43;1.23;;;20.80;82.80;;;;;;5045166;28;20021;-74
2023/07/01 07:14:47;;;;;;;3.15;1.38;;;20.80;83.00;;;;;;5045293;28;20367;-75
2023/07/01 07:17:13;;;;;;;3.35;1.27;;;20.80;83.00;;;;;;5044872;28;20307;-73
2023/07/01 07:19:38;;;;;;;6.05;1.20;;;20.80;83.40;;;;;;5045268;28;20029;-75
2023/07/01 07:22:05;;;;;;;4.80;1.42;;;20.90;82.20;;;;;;5044529;28;20041;-74
2023/07/01 07:24:31;;;;;;;4.13;1.75;;;21.00;80.90;;;;;;5044910;28;20025;-74
2023/07/01 07:27:00;;;;;;;2.78;1.27;;;21.10;81.20;;;;;;5045387;28;20101;-74
2023/07/01 07:29:33;;;;;;;7.03;1.40;;;21.20;81.00;;;;;;5045345;28;20021;-74
2023/07/01 07:31:59;;;;;;;3.53;1.20;;;21.30;80.10;;;;;;5045276;28;20052;-73
2023/07/01 07:34:25;;;;;;;2.58;1.25;;;21.40;79.80;;;;;;5044643;28;20025;-74
2023/07/01 07:36:52;;;;;;;3.72;1.10;;;21.60;79.80;;;;;;5045063;28;20025;-74
2023/07/01 07:39:18;;;;;;;2.13;1.00;;;21.80;77.40;;;;;;5044605;28;20030;-73
2023/07/01 07:41:44;;;;;;;3.17;1.13;;;22.20;76.70;;;;;;5027426;28;20021;-75
2023/07/01 07:44:11;;;;;;;3.55;1.33;;;22.40;75.00;;;;;;5044480;28;20307;-74
2023/07/01 07:46:38;;;;;;;4.40;1.45;;;22.50;74.70;;;;;;5044552;28;20101;-74
2023/07/01 07:49:04;;;;;;;6.25;2.88;;;22.70;75.00;;;;;;5044218;28;20111;-73
2023/07/01 07:51:31;;;;;;;3.22;1.35;;;22.70;75.30;;;;;;5027298;28;20061;-73
2023/07/01 07:53:57;;;;;;;5.72;1.15;;;22.90;74.70;;;;;;5044524;28;20033;-74
2023/07/01 07:56:23;;;;;;;3.40;1.38;;;23.10;74.00;;;;;;5044752;28;20342;-74
2023/07/01 07:58:49;;;;;;;3.45;1.10;;;23.30;73.90;;;;;;5028219;28;20030;-73
2023/07/01 08:01:14;;;;;;;3.88;1.10;;;23.30;73.70;;;;;;5033056;28;20018;-75
2023/07/01 08:03:40;;;;;;;4.22;1.00;;;23.50;74.80;;;;;;5031114;28;20042;-75
2023/07/01 08:06:06;;;;;;;4.32;1.50;;;23.50;72.20;;;;;;5024202;28;20034;-75
2023/07/01 08:08:33;;;;;;;4.00;1.48;;;23.50;72.10;;;;;;5037665;28;20037;-75
2023/07/01 08:10:59;;;;;;;3.22;1.33;;;23.30;72.70;;;;;;5044058;28;20033;-75
2023/07/01 08:13:25;;;;;;;3.67;1.30;;;23.10;73.30;;;;;;5043662;28;20025;-75
2023/07/01 08:15:51;;;;;;;3.42;1.58;;;23.00;73.30;;;;;;5040966;28;20068;-75
2023/07/01 08:18:17;;;;;;;2.72;1.20;;;22.80;73.70;;;;;;5042849;28;20243;-75
2023/07/01 08:20:44;;;;;;;3.83;1.30;;;22.60;75.80;;;;;;5044103;28;20037;-74
2023/07/01 08:23:10;;;;;;;3.65;1.70;;;22.80;75.40;;;;;;5043736;28;20084;-75
2023/07/01 08:25:39;;;;;;;3.25;1.45;;;22.60;75.80;;;;;;5043573;28;20033;-78
2023/07/01 08:28:05;;;;;;;2.63;1.00;;;22.50;75.50;;;;;;5043198;28;20029;-77
2023/07/01 08:30:31;;;;;;;3.05;1.25;;;22.80;75.30;;;;;;5044037;28;20079;-75
2023/07/01 08:33:00;;;;;;;3.95;1.63;;;22.70;75.20;;;;;;5023332;28;20101;-77
2023/07/01 08:35:26;;;;;;;3.72;1.55;;;22.80;74.80;;;;;;5006318;28;20029;-75
2023/07/01 08:37:52;;;;;;;3.00;1.50;;;22.70;74.60;;;;;;5024163;28;20044;-75
2023/07/01 08:40:18;;;;;;;4.13;1.40;;;22.50;75.30;;;;;;5005997;28;20017;-77
2023/07/01 08:43:02;;;;;;;3.75;1.25;;;22.40;75.40;;;;;;5023847;28;20065;-77
2023/07/01 08:45:30;;;;;;;4.05;1.40;;;22.50;75.90;;;;;;5023257;28;20306;-76
2023/07/01 08:47:58;;;;;;;3.50;1.50;;;22.50;74.90;;;;;;5006382;28;20034;-75
2023/07/01 08:50:25;;;;;;;;;;;22.30;75.30;;;;;;5024294;28;20101;-73
2023/07/01 08:53:02;;;;;;;4.50;1.60;;;22.30;76.20;;;;;;5023694;28;19905;-76
2023/07/01 08:55:30;;;;;;;4.18;1.30;;;22.50;76.30;;;;;;5023257;28;20034;-76
2023/07/01 08:57:56;;;;;;;3.90;1.50;;;22.90;75.70;;;;;;5030178;28;20020;-77
2023/07/01 09:00:21;;;;;;;4.00;1.50;;;23.00;75.90;;;;;;5027221;28;20034;-75
2023/07/01 09:02:48;;;;;;;3.88;1.33;;;23.00;75.40;;;;;;5030203;28;20129;-78
2023/07/01 09:05:14;;;;;;;4.32;1.30;;;23.00;73.80;;;;;;5042940;28;20045;-75
2023/07/01 09:07:42;;;;;;;3.90;1.20;;;23.10;72.00;;;;;;5043137;28;20100;-77
2023/07/01 09:10:10;;;;;;;;;;;23.20;71.20;;;;;;5043303;28;20056;-76
2023/07/01 09:12:36;;;;;;;2.88;1.15;;;23.20;71.20;;;;;;5043097;28;20072;-75
2023/07/01 09:15:07;;;;;;;3.58;1.30;;;23.30;71.80;;;;;;5043128;28;20032;-74
2023/07/01 09:17:34;;;;;;;4.30;1.60;;;23.40;71.80;;;;;;5043073;28;20030;-74
2023/07/01 09:20:04;;;;;;;4.45;1.30;;;23.60;70.90;;;;;;5043202;28;20214;-75
2023/07/01 09:22:30;;;;;;;3.33;1.30;;;23.70;70.60;;;;;;5042397;28;20052;-76
2023/07/01 09:24:57;;;;;;;3.00;1.23;;;23.60;69.50;;;;;;5043490;28;20305;-76
2023/07/01 09:27:23;;;;;;;3.38;1.33;;;23.50;69.00;;;;;;5042485;28;20326;-77
2023/07/01 09:29:48;;;;;;;2.83;1.00;;;23.60;68.20;;;;;;5042811;28;20092;-75
2023/07/01 09:32:32;;;;;;;3.70;1.00;;;23.50;67.90;;;;;;5042609;28;20124;-75
2023/07/01 09:35:02;;;;;;;2.60;1.15;;;23.50;68.30;;;;;;5005869;28;20037;-74
2023/07/01 09:37:28;;;;;;;4.88;1.33;;;23.40;69.00;;;;;;5021803;28;20052;-74
2023/07/01 09:39:54;;;;;;;5.10;1.05;;;23.60;67.90;;;;;;5005666;28;20022;-76
2023/07/01 09:42:20;;;;;;;3.97;1.30;;;23.60;67.00;;;;;;5004924;28;20106;-74
2023/07/01 09:45:05;;;;;;;7.15;1.15;;;23.80;66.80;;;;;;5022955;28;20058;-74
2023/07/01 09:47:32;;;;;;;2.78;1.10;;;24.10;65.90;;;;;;5005424;28;20240;-74
2023/07/01 09:49:58;;;;;;;2.05;1.00;;;24.40;66.00;;;;;;5022815;28;20312;-74
2023/07/01 09:52:34;;;;;;;2.92;1.10;;;24.40;63.80;;;;;;5022749;28;20079;-76
2023/07/01 09:55:02;;;;;;;2.95;1.00;;;24.20;63.80;;;;;;5005869;28;20052;-75
2023/07/01 09:57:29;;;;;;;3.70;1.40;;;24.20;64.80;;;;;;5025257;28;20091;-76
2023/07/01 09:59:55;;;;;;;5.10;1.38;;;24.30;63.00;;;;;;5031000;28;20106;-73
2023/07/01 10:02:22;;;;;;;4.50;1.55;;;24.40;63.10;;;;;;5025200;28;20048;-75
2023/07/01 10:04:48;;;;;;;3.90;1.60;;;24.50;61.20;;;;;;5042189;28;20208;-75
2023/07/01 10:07:14;;;;;;;3.75;1.80;;;24.30;61.50;;;;;;5042136;28;20041;-76
2023/07/01 10:09:44;;;;;;;4.38;1.63;;;24.20;61.50;;;;;;5042351;28;20025;-74
2023/07/01 10:12:13;;;;;;;3.50;1.63;;;24.20;61.70;;;;;;5042298;28;20211;-75
2023/07/01 10:14:40;;;;;;;5.57;1.60;;;24.30;61.30;;;;;;5042389;28;20034;-75
2023/07/01 10:17:06;;;;;;;3.67;1.85;;;24.60;61.60;;;;;;5042429;28;20026;-75
2023/07/01 10:19:34;;;;;;;5.20;1.33;;;24.70;61.50;;;;;;5043089;28;20026;-74
2023/07/01 10:22:22;;;;;;;3.97;1.50;;;24.90;61.20;;;;;;5044833;28;20034;-75
2023/07/01 10:25:27;;;;;;;3.92;1.58;;;25.10;60.70;;;;;;5044318;28;20104;-76
2023/07/01 10:28:04;;;;;;;2.55;1.20;;;24.70;61.00;;;;;;5025829;28;20076;-75
2023/07/01 10:31:02;;;;;;;3.22;1.50;;;24.80;62.10;;;;;;5041995;28;20103;-76
2023/07/01 10:33:30;;;;;;;2.80;1.40;;;24.90;61.30;;;;;;4987628;28;20108;-76
2023/07/01 10:36:09;;;;;;;2.95;1.25;;;25.10;60.50;;;;;;5024746;28;20017;-77
2023/07/01 10:38:36;;;;;;;5.07;1.45;;;25.30;60.90;;;;;;5042126;28;20199;-77
2023/07/01 10:41:02;;;;;;;5.30;1.40;;;25.60;60.20;;;;;;5024907;28;20021;-74
2023/07/01 10:43:38;;;;;;;2.92;1.30;;;26.00;59.10;;;;;;5041744;28;20072;-76
2023/07/01 10:46:23;;;;;;;2.60;1.40;;;26.20;58.10;;;;;;5042502;28;20025;-74
2023/07/01 10:49:03;;;;;;;5.07;1.67;;;26.10;58.10;;;;;;5045030;28;20303;-75
2023/07/01 10:51:33;;;;;;;3.65;1.40;;;26.30;59.40;;;;;;5045733;28;20100;-73
2023/07/01 10:54:02;;;;;;;3.70;1.27;;;27.00;59.10;;;;;;5041034;28;20037;-73
2023/07/01 10:56:32;;;;;;;3.70;1.45;;;27.10;58.90;;;;;;5030093;28;20068;-73
2023/07/01 10:59:17;;;;;;;2.63;1.27;;;27.30;58.00;;;;;;5024937;28;20208;-71
2023/07/01 11:01:49;;;;;;;2.78;1.30;;;27.40;57.20;;;;;;5025384;28;20053;-75
2023/07/01 11:04:16;;;;;;;4.13;1.58;;;27.20;57.40;;;;;;5019749;28;20031;-73
2023/07/01 11:06:52;;;;;;;4.03;1.25;;;27.50;56.40;;;;;;5006041;28;20057;-74
2023/07/01 11:09:28;;;;;;;3.33;1.50;;;27.70;56.60;;;;;;5005417;28;20030;-73
2023/07/01 11:11:56;;;;;;;3.45;1.50;;;27.70;55.80;;;;;;5005987;28;20073;-74
2023/07/01 11:14:33;;;;;;;3.27;1.70;;;27.50;56.50;;;;;;5023950;28;20022;-74
2023/07/01 11:17:19;;;;;;;6.53;1.70;;;27.60;56.90;;;;;;5025342;28;20437;-74
2023/07/01 11:19:45;;;;;;;3.70;1.48;;;27.30;56.60;;;;;;5025603;28;20061;-75
2023/07/01 11:22:12;;;;;;;4.22;1.80;;;27.00;57.20;;;;;;5025122;28;20048;-73
2023/07/01 11:24:38;;;;;;;4.00;1.48;;;27.10;57.50;;;;;;5025106;28;20311;-74
2023/07/01 11:27:07;;;;;;;10.25;2.25;;;27.10;56.80;;;;;;5008573;28;20014;-74
2023/07/01 11:29:35;;;;;;;4.10;1.90;;;26.90;57.90;;;;;;5013463;28;20030;-73
2023/07/01 11:32:14;;;;;;;2.85;1.52;;;27.20;57.20;;;;;;5000251;28;20030;-74
2023/07/01 11:34:42;;;;;;;2.78;1.35;;;27.10;56.70;;;;;;5005556;28;20316;-75
2023/07/01 11:37:08;;;;;;;4.03;1.73;;;27.50;57.10;;;;;;5023383;28;20220;-72
2023/07/01 11:39:45;;;;;;;4.30;1.80;;;27.50;56.60;;;;;;5024762;28;20064;-75
2023/07/01 11:42:11;;;;;;;3.88;1.38;;;27.70;56.70;;;;;;5024942;28;20224;-74
2023/07/01 11:44:37;;;;;;;4.80;1.80;;;27.30;56.80;;;;;;5013526;28;20034;-73
2023/07/01 11:47:11;;;;;;;3.70;1.92;;;27.10;56.70;;;;;;5005382;28;20042;-74
2023/07/01 11:49:37;;;;;;;4.72;2.10;;;27.10;57.60;;;;;;5004837;28;20270;-74
2023/07/01 11:52:04;;;;;;;4.45;1.67;;;27.10;57.20;;;;;;5005003;28;20035;-76
2023/07/01 11:54:38;;;;;;;3.10;1.60;;;26.80;58.00;;;;;;5004474;28;20259;-73
2023/07/01 11:57:15;;;;;;;2.72;1.60;;;27.30;57.60;;;;;;5004963;28;20094;-73
2023/07/01 12:00:07;;;;;;;3.30;1.65;;;27.70;56.40;;;;;;5005233;28;20085;-73
2023/07/01 12:02:34;;;;;;;4.10;1.92;;;27.70;56.90;;;;;;5007134;28;20050;-74
2023/07/01 12:05:01;;;;;;;4.25;1.48;;;27.90;56.70;;;;;;5015761;28;20029;-74
2023/07/01 12:07:27;;;;;;;3.58;1.58;;;27.60;57.10;;;;;;5012698;28;20022;-74
2023/07/01 12:09:52;;;;;;;3.33;1.60;;;27.60;57.20;;;;;;5015246;28;20042;-74
2023/07/01 12:12:34;;;;;;;3.67;1.80;;;27.60;57.00;;;;;;5009723;28;20284;-75
2023/07/01 12:15:02;;;;;;;2.90;1.77;;;27.20;56.80;;;;;;5015139;28;20202;-75
2023/07/01 12:17:29;;;;;;;3.95;1.70;;;26.70;57.40;;;;;;5018230;28;20041;-74
2023/07/01 12:19:55;;;;;;;5.60;1.92;;;26.50;58.40;;;;;;5024143;28;20041;-75
2023/07/01 12:22:20;;;;;;;3.85;1.70;;;26.20;59.40;;;;;;5024007;28;20030;-73
2023/07/01 12:24:53;;;;;;;3.45;1.73;;;26.00;59.90;;;;;;5023983;28;20033;-73
2023/07/01 12:27:19;;;;;;;2.47;1.58;;;25.80;60.10;;;;;;5023728;28;20101;-73
2023/07/01 12:29:44;;;;;;;3.90;1.50;;;25.50;61.30;;;;;;5024127;28;20018;-72
2023/07/01 12:32:10;;;;;;;3.40;1.42;;;25.40;61.50;;;;;;5024349;28;20060;-74
2023/07/01 12:34:36;;;;;;;4.80;2.10;;;25.30;61.80;;;;;;5020875;28;20041;-73
2023/07/01 12:37:02;;;;;;;2.97;1.67;;;25.10;62.30;;;;;;5015848;28;20144;-74
2023/07/01 12:39:28;;;;;;;2.92;1.45;;;24.90;62.70;;;;;;5003925;28;20037;-74
2023/07/01 12:41:55;;;;;;;4.38;1.80;;;24.80;63.10;;;;;;5004155;28;20338;-74
2023/07/01 12:44:21;;;;;;;3.30;1.42;;;25.00;63.60;;;;;;5003689;28;20038;-73
2023/07/01 12:46:47;;;;;;;5.38;2.10;;;25.40;62.90;;;;;;5004060;28;20065;-73
2023/07/01 12:49:13;;;;;;;3.10;1.40;;;25.70;62.20;;;;;;5004192;28;20283;-73
2023/07/01 12:51:41;;;;;;;4.43;1.23;;;25.40;62.70;;;;;;5003358;28;20046;-72
2023/07/01 12:54:07;;;;;;;4.50;1.40;;;24.90;63.30;;;;;;5004297;28;20208;-73
2023/07/01 12:56:32;;;;;;;4.10;1.23;;;24.70;64.20;;;;;;5003277;28;20033;-73
2023/07/01 12:58:58;;;;;;;2.15;1.20;;;24.80;64.50;;;;;;5018402;28;20057;-72
2023/07/01 13:01:24;;;;;;;4.25;1.40;;;24.90;64.20;;;;;;5022688;28;20105;-73
2023/07/01 13:03:50;;;;;;;3.20;1.33;;;24.70;65.00;;;;;;5023847;28;20189;-72
2023/07/01 13:06:21;;;;;;;3.20;1.48;;;24.90;64.80;;;;;;5023474;28;20072;-72
2023/07/01 13:08:47;;;;;;;5.40;1.50;;;24.50;64.30;;;;;;5024720;28;20052;-74
2023/07/01 13:11:15;;;;;;;4.97;2.17;;;24.60;65.10;;;;;;5007101;28;20114;-75
2023/07/01 13:13:41;;;;;;;3.92;1.60;;;24.80;64.50;;;;;;5024170;28;20296;-75
2023/07/01 13:16:26;;;;;;;4.20;1.63;;;24.70;64.70;;;;;;5024008;28;20101;-76
2023/07/01 13:18:52;;;;;;;4.07;1.50;;;24.90;64.60;;;;;;5006446;28;20072;-75
2023/07/01 13:21:17;;;;;;;3.40;1.25;;;24.90;64.60;;;;;;5020648;28;20026;-73
2023/07/01 13:23:43;;;;;;;3.33;1.52;;;24.70;65.50;;;;;;5006263;28;20037;-76
2023/07/01 13:26:10;;;;;;;3.53;1.30;;;24.70;66.00;;;;;;5023241;28;20033;-74
2023/07/01 13:28:36;;;;;;;2.83;1.30;;;24.80;66.50;;;;;;5018694;28;20038;-73
2023/07/01 13:31:01;;;;;;;4.30;1.45;;;25.00;66.60;;;;;;5035007;28;20116;-76
2023/07/01 13:33:27;;;;;;;3.42;1.25;;;25.30;66.50;;;;;;5042562;28;20418;-72
2023/07/01 13:35:53;;;;;;;2.30;0.98;;;25.30;66.50;;;;;;5043183;28;20052;-75
2023/07/01 13:38:25;;;;;;;2.95;1.23;;;25.10;65.80;;;;;;5024776;28;20041;-75
2023/07/01 13:40:52;;;;;;;3.17;1.40;;;24.80;67.30;;;;;;5023474;28;20026;-74
2023/07/01 13:43:20;;;;;;;2.55;1.13;;;24.60;67.50;;;;;;5023410;28;20308;-75
2023/07/01 13:45:46;;;;;;;2.42;0.98;;;24.70;67.30;;;;;;5023021;28;20101;-73
2023/07/01 13:48:32;;;;;;;2.15;0.80;;;24.40;68.00;;;;;;5023133;28;20025;-72
2023/07/01 13:50:58;;;;;;;3.28;0.80;;;24.40;68.60;;;;;;5023280;28;20034;-74
2023/07/01 13:53:24;;;;;;;2.25;0.90;;;24.30;68.60;;;;;;5007061;28;20048;-73
2023/07/01 13:55:50;;;;;;;2.13;0.90;;;24.30;68.80;;;;;;5043041;28;20311;-72
2023/07/01 13:58:16;;;;;;;2.10;1.15;;;24.20;69.20;;;;;;5033174;28;20102;-74
2023/07/01 14:00:49;;;;;;;4.45;1.00;;;24.00;69.10;;;;;;5024560;28;20006;-74
2023/07/01 14:03:21;;;;;;;2.10;1.00;;;24.00;69.50;;;;;;5005048;28;20057;-74
2023/07/01 14:05:49;;;;;;;3.83;1.00;;;24.00;69.50;;;;;;5022808;28;20041;-74
2023/07/01 14:08:15;;;;;;;3.10;0.93;;;23.90;70.30;;;;;;5022501;28;20037;-74
2023/07/01 14:10:42;;;;;;;2.63;1.30;;;24.00;70.20;;;;;;5022288;28;20034;-73
2023/07/01 14:13:11;;;;;;;2.42;1.02;;;24.00;70.00;;;;;;5022676;28;20033;-74
2023/07/01 14:15:39;;;;;;;3.80;1.00;;;24.00;69.70;;;;;;5022362;28;20026;-74
2023/07/01 14:18:26;;;;;;;1.48;0.60;;;24.20;69.90;;;;;;5022942;28;20083;-73
2023/07/01 14:21:09;;;;;;;6.95;1.05;;;24.50;69.50;;;;;;5029012;28;20120;-74
2023/07/01 14:23:38;;;;;;;3.17;1.08;;;24.90;68.80;;;;;;5044714;28;20041;-73
2023/07/01 14:26:07;;;;;;;;;;;25.10;68.10;;;;;;5046592;28;20025;-74
2023/07/01 14:28:33;;;;;;;2.40;1.08;;;25.20;67.90;;;;;;5035701;28;19906;-74
2023/07/01 14:31:07;;;;;;;2.90;1.25;;;25.40;67.30;;;;;;5008892;28;20025;-72
2023/07/01 14:33:39;;;;;;;4.25;0.90;;;25.50;67.70;;;;;;5025340;28;20045;-73
2023/07/01 14:36:13;;;;;;;4.20;1.23;;;25.60;67.30;;;;;;5026216;28;20068;-72
2023/07/01 14:38:46;;;;;;;3.08;1.00;;;25.50;67.80;;;;;;5025561;28;20030;-72
2023/07/01 14:41:21;;;;;;;3.28;1.00;;;25.60;67.70;;;;;;4992728;28;20084;-73
2023/07/01 14:43:50;;;;;;;2.55;0.73;;;25.70;67.50;;;;;;5025765;28;20033;-73
2023/07/01 14:46:16;;;;;;;1.98;0.90;;;25.30;68.00;;;;;;5026284;28;20033;-72
2023/07/01 14:48:49;;;;;;;1.70;0.75;;;25.00;69.10;;;;;;5025578;28;20033;-73
2023/07/01 14:51:15;;;;;;;2.33;0.70;;;24.90;69.70;;;;;;5025856;28;20045;-72
2023/07/01 14:53:42;;;;;;;2.35;0.80;;;24.80;69.80;;;;;;5025612;28;20026;-73
2023/07/01 14:56:08;;;;;;;2.63;0.70;;;24.90;69.40;;;;;;5025837;28;20320;-72
2023/07/01 14:58:34;;;;;;;3.55;0.88;;;24.70;70.00;;;;;;5024969;28;20076;-74
2023/07/01 15:01:00;;;;;;;1.60;0.50;;;24.90;69.60;;;;;;5008396;28;20072;-71
2023/07/01 15:03:26;;;;;;;1.63;0.73;;;24.90;69.30;;;;;;5025285;28;20257;-72
2023/07/01 15:05:52;;;;;;;2.83;0.80;;;25.00;69.50;;;;;;5025142;28;20361;-74
2023/07/01 15:08:17;;;;;;;4.25;0.90;;;25.00;69.20;;;;;;5025338;28;20049;-74
2023/07/01 15:10:43;;;;;;;3.78;1.00;;;25.00;69.20;;;;;;5025342;28;20311;-72
2023/07/01 15:13:09;;;;;;;2.00;0.77;;;24.90;69.50;;;;;;5025693;28;20026;-72
2023/07/01 15:15:34;;;;;;;2.55;0.77;;;24.70;70.30;;;;;;5025324;28;20037;-73
2023/07/01 15:18:00;;;;;;;1.42;0.68;;;24.90;69.90;;;;;;5025789;28;20018;-73
2023/07/01 15:20:26;;;;;;;2.97;0.70;;;24.80;70.50;;;;;;5028590;28;20026;-74
2023/07/01 15:22:52;;;;;;;1.85;0.80;;;24.80;70.60;;;;;;5044779;28;20033;-74
2023/07/01 15:25:18;;;;;;;1.42;0.63;;;24.50;71.00;;;;;;5045515;28;20040;-74
2023/07/01 15:27:44;;;;;;;2.42;0.95;;;24.60;70.90;;;;;;5041282;28;20041;-75
2023/07/01 15:30:10;;;;;;;1.70;0.80;;;24.50;71.40;;;;;;5025494;28;20231;-73
2023/07/01 15:32:36;;;;;;;3.65;0.75;;;24.50;72.50;;;;;;5007515;28;20053;-74
2023/07/01 15:35:03;;;;;;;2.33;0.70;;;24.50;72.10;;;;;;5024156;28;20022;-74
2023/07/01 15:37:32;;;;;;;1.00;0.40;;;24.30;74.10;;;;;;5025456;28;20068;-75
2023/07/01 15:39:58;;;;;;;1.48;0.50;;;23.80;76.00;;;;;;5007756;28;20455;-73
2023/07/01 15:42:25;;;;;;;1.35;0.40;;;23.40;77.50;;;;;;5025072;28;20037;-72
2023/07/01 15:44:50;;;;;;;1.45;0.50;;;23.30;77.90;;;;;;5007302;28;20049;-73
2023/07/01 15:47:16;;;;;;;1.88;0.43;;;23.30;78.30;;;;;;5024791;28;20033;-73
2023/07/01 15:49:42;;;;;;;2.83;0.60;;;23.00;79.40;;;;;;5024952;28;20530;-73
2023/07/01 15:52:08;;;;;;;2.92;0.60;;;23.00;80.10;;;;;;5025289;28;20026;-74
2023/07/01 15:54:34;;;;;;;2.33;0.70;;;22.80;80.40;;;;;;5024503;28;20017;-76
2023/07/01 15:57:00;;;;;;;2.42;0.80;;;22.60;81.90;;;;;;5024965;28;20102;-75
2023/07/01 15:59:29;;;;;;;1.38;0.68;;;22.60;83.00;;;;;;5024913;28;20033;-74
2023/07/01 16:01:57;;;;;;;2.38;0.75;;;22.60;82.50;;;;;;5024124;28;20054;-74
2023/07/01 16:04:23;;;;;;;2.15;0.70;;;22.50;82.90;;;;;;5024486;28;20041;-72
2023/07/01 16:06:48;;;;;;;2.28;0.70;;;22.50;83.20;;;;;;5024147;28;20033;-73
2023/07/01 16:09:43;;;;;;;2.47;0.70;;;22.50;83.90;;;;;;5024242;28;20017;-76
2023/07/01 16:12:36;;;;;;;1.63;0.70;;;22.40;84.50;;;;;;4990329;28;20336;-73
2023/07/01 16:15:10;;;;;;;2.67;0.60;;;22.50;84.20;;;;;;5024504;28;20041;-71
2023/07/01 16:17:40;;;;;;;2.95;0.90;;;22.50;83.50;;;;;;5024453;28;20034;-73
2023/07/01 16:20:30;;;;;;;2.33;0.75;;;22.30;84.20;;;;;;5006924;28;20061;-73
2023/07/01 16:23:06;;;;;;;4.80;0.88;;;22.20;85.90;;;;;;5043649;28;20048;-73
2023/07/01 16:25:33;;;;;;;1.80;0.70;;;22.10;87.90;;;;;;5044218;28;20025;-73
2023/07/01 16:27:59;;;;;;;2.33;1.05;;;21.60;90.60;;;;;;5038522;28;20076;-72
2023/07/01 16:30:26;;;;;;;2.47;0.95;;;21.30;92.10;;;;;;5023973;28;20037;-72
2023/07/01 16:32:58;;;;;;;4.47;0.95;;;21.20;92.40;;;;;;5006401;28;20398;-72
2023/07/01 16:35:45;;;;;;;4.07;1.05;;;21.00;93.80;;;;;;5024339;28;20037;-72
2023/07/01 16:38:37;;;;;;;3.40;1.42;;;21.00;94.50;;;;;;5024741;28;20029;-73
2023/07/01 16:41:03;;;;;;;2.22;1.23;;;21.20;94.60;;;;;;5021937;28;20038;-75
2023/07/01 16:43:40;;;;;;;4.20;1.33;;;21.30;95.00;;;;;;5006701;28;20057;-73
2023/07/01 16:46:06;;;;;;;3.08;1.50;;;21.40;95.00;;;;;;5023941;28;20026;-73
2023/07/01 16:48:52;;;;;;;4.85;3.15;;;21.50;94.60;;;;;;5024349;28;20021;-73
2023/07/01 16:51:18;;;;;;;13.98;10.50;;;21.50;94.90;;;;;;5024320;28;20036;-74
2023/07/01 16:53:53;;;;;;;7.70;5.55;;;21.50;95.00;;;;;;5006108;28;20276;-73
2023/07/01 16:56:39;;;;;;;5.32;3.83;;;21.60;95.20;;;;;;5023764;28;20041;-73
2023/07/01 16:59:05;;;;;;;4.90;3.00;;;21.50;94.80;;;;;;5023781;28;20037;-73
2023/07/01 17:01:37;;;;;;;4.38;1.92;;;21.50;95.10;;;;;;5023006;28;20045;-73
2023/07/01 17:04:36;;;;;;;3.80;2.53;;;21.50;94.70;;;;;;5006252;28;20113;-73
2023/07/01 17:07:13;;;;;;;5.13;3.70;;;21.40;94.30;;;;;;5006352;28;20071;-76
2023/07/01 17:09:41;;;;;;;4.00;2.35;;;21.40;94.70;;;;;;5005811;28;20038;-74
2023/07/01 17:12:10;;;;;;;6.00;2.70;;;21.40;95.00;;;;;;5023607;28;20111;-74
2023/07/01 17:14:47;;;;;;;3.67;2.05;;;21.40;95.10;;;;;;5022790;28;20048;-73
2023/07/01 17:17:28;;;;;;;4.35;1.75;;;21.30;95.70;;;;;;5023354;28;20026;-73
2023/07/01 17:19:58;;;;;;;5.20;3.20;;;21.30;95.80;;;;;;5023053;28;20198;-73
2023/07/01 17:22:27;;;;;;;3.88;2.50;;;21.30;96.10;;;;;;5042027;28;20045;-75
2023/07/01 17:24:54;;;;;;;2.75;1.38;;;21.20;95.80;;;;;;5042831;28;20092;-76
2023/07/01 17:27:20;;;;;;;2.25;1.45;;;21.20;94.60;;;;;;5042616;28;20033;-72
2023/07/01 17:29:53;;;;;;;2.70;0.90;;;21.20;94.40;;;;;;5022551;28;20032;-73
2023/07/01 17:32:20;;;;;;;3.00;1.52;;;21.10;94.50;;;;;;5023449;28;20065;-73
2023/07/01 17:35:15;;;;;;;2.90;1.20;;;21.00;94.70;;;;;;5022735;28;20197;-77
2023/07/01 17:37:42;;;;;;;3.67;1.67;;;21.00;95.20;;;;;;5022817;28;20041;-73
2023/07/01 17:40:10;;;;;;;2.30;0.95;;;20.90;95.60;;;;;;5023151;28;20308;-72
2023/07/01 17:42:36;;;;;;;5.35;2.30;;;20.90;96.20;;;;;;5023187;28;20048;-72
2023/07/01 17:45:01;;;;;;;2.63;1.33;;;20.90;96.90;;;;;;5022756;28;20037;-72
2023/07/01 17:47:27;;;;;;;2.15;1.10;;;20.60;96.80;;;;;;5023230;28;20038;-72
2023/07/01 17:49:53;;;;;;;3.63;0.88;;;20.50;97.80;;;;;;5022797;28;20048;-72
2023/07/01 17:52:22;;;;;;;2.63;1.00;;;20.50;98.60;;;;;;5023019;28;20084;-71
2023/07/01 17:54:47;;;;;;;2.67;1.17;;;20.40;98.20;;;;;;5022449;28;20033;-72
2023/07/01 17:57:13;;;;;;;2.90;0.93;;;20.30;99.20;;;;;;5023254;28;20099;-72
2023/07/01 17:59:39;;;;;;;2.22;1.02;;;20.30;99.30;;;;;;5009048;28;20366;-72